sensor_id;sensor_type;location;lat;lon;timestamp;P1;durP1;ratioP1;P2;durP2;ratioP2
52440;SDS011;39611;46.062;8.950;2023-03-01T00:00:01;7.13;;;3.00;;
52440;SDS011;39611;46.062;8.950;2023-03-01T00:02:27;5.85;;;3.15;;
52440;SDS011;39611;46.062;8.950;2023-03-01T00:04:54;5.47;;;2.85;;
52440;SDS011;39611;46.062;8.950;2023-03-01T00:07:20;5.00;;;2.40;;
52440;SDS011;39611;46.062;8.950;2023-03-01T00:09:46;7.07;;;2.72;;
52440;SDS011;39611;46.062;8.950;2023-03-01T00:12:13;8.50;;;2.60;;
52440;SDS011;39611;46.062;8.950;2023-03-01T00:14:39;5.32;;;2.63;;
52440;SDS011;39611;46.062;8.950;2023-03-01T00:17:06;6.63;;;2.47;;
52440;SDS011;39611;46.062;8.950;2023-03-01T00:19:32;8.10;;;3.20;;
52440;SDS011;39611;46.062;8.950;2023-03-01T00:21:59;5.00;;;2.90;;
52440;SDS011;39611;46.062;8.950;2023-03-01T00:24:25;7.50;;;2.90;;
52440;SDS011;39611;46.062;8.950;2023-03-01T00:26:52;6.90;;;2.83;;
52440;SDS011;39611;46.062;8.950;2023-03-01T00:29:22;6.15;;;2.08;;
52440;SDS011;39611;46.062;8.950;2023-03-01T00:31:49;7.95;;;3.45;;
52440;SDS011;39611;46.062;8.950;2023-03-01T00:34:16;4.20;;;2.75;;
52440;SDS011;39611;46.062;8.950;2023-03-01T00:36:42;7.28;;;2.55;;
52440;SDS011;39611;46.062;8.950;2023-03-01T00:39:15;7.15;;;3.05;;
52440;SDS011;39611;46.062;8.950;2023-03-01T00:41:42;7.45;;;2.85;;
52440;SDS011;39611;46.062;8.950;2023-03-01T00:44:09;7.00;;;3.08;;
52440;SDS011;39611;46.062;8.950;2023-03-01T00:46:36;7.78;;;3.58;;
52440;SDS011;39611;46.062;8.950;2023-03-01T00:49:03;11.20;;;3.15;;
52440;SDS011;39611;46.062;8.950;2023-03-01T00:51:30;9.82;;;3.45;;
52440;SDS011;39611;46.062;8.950;2023-03-01T00:53:58;7.03;;;3.10;;
52440;SDS011;39611;46.062;8.950;2023-03-01T00:56:29;6.43;;;2.80;;
52440;SDS011;39611;46.062;8.950;2023-03-01T00:58:57;9.05;;;3.00;;
52440;SDS011;39611;46.062;8.950;2023-03-01T01:01:25;8.07;;;2.80;;
52440;SDS011;39611;46.062;8.950;2023-03-01T01:03:56;3.55;;;1.77;;
52440;SDS011;39611;46.062;8.950;2023-03-01T01:06:41;6.25;;;2.58;;
52440;SDS011;39611;46.062;8.950;2023-03-01T01:09:09;7.22;;;2.65;;
52440;SDS011;39611;46.062;8.950;2023-03-01T01:11:44;7.85;;;3.08;;
52440;SDS011;39611;46.062;8.950;2023-03-01T01:14:16;7.95;;;3.28;;
52440;SDS011;39611;46.062;8.950;2023-03-01T01:16:43;13.52;;;3.72;;
52440;SDS011;39611;46.062;8.950;2023-03-01T01:19:10;6.65;;;2.83;;
52440;SDS011;39611;46.062;8.950;2023-03-01T01:21:37;5.07;;;2.30;;
52440;SDS011;39611;46.062;8.950;2023-03-01T01:24:04;5.68;;;2.17;;
52440;SDS011;39611;46.062;8.950;2023-03-01T01:26:32;6.78;;;2.53;;
52440;SDS011;39611;46.062;8.950;2023-03-01T01:29:00;4.35;;;1.95;;
52440;SDS011;39611;46.062;8.950;2023-03-01T01:31:28;5.10;;;2.40;;
52440;SDS011;39611;46.062;8.950;2023-03-01T01:33:56;7.25;;;2.65;;
52440;SDS011;39611;46.062;8.950;2023-03-01T01:36:23;9.32;;;2.40;;
52440;SDS011;39611;46.062;8.950;2023-03-01T01:38:49;11.10;;;2.45;;
52440;SDS011;39611;46.062;8.950;2023-03-01T01:41:16;8.10;;;2.25;;
52440;SDS011;39611;46.062;8.950;2023-03-01T01:43:45;5.45;;;1.83;;
52440;SDS011;39611;46.062;8.950;2023-03-01T01:46:28;2.60;;;1.77;;
52440;SDS011;39611;46.062;8.950;2023-03-01T01:49:00;11.13;;;3.45;;
52440;SDS011;39611;46.062;8.950;2023-03-01T01:51:31;5.57;;;2.45;;
52440;SDS011;39611;46.062;8.950;2023-03-01T01:54:09;5.53;;;2.55;;
52440;SDS011;39611;46.062;8.950;2023-03-01T01:56:38;5.72;;;2.92;;
52440;SDS011;39611;46.062;8.950;2023-03-01T01:59:08;8.02;;;2.72;;
52440;SDS011;39611;46.062;8.950;2023-03-01T02:01:35;4.53;;;2.33;;
52440;SDS011;39611;46.062;8.950;2023-03-01T02:04:02;7.10;;;3.08;;
52440;SDS011;39611;46.062;8.950;2023-03-01T02:06:39;4.30;;;2.17;;
52440;SDS011;39611;46.062;8.950;2023-03-01T02:09:11;5.97;;;2.15;;
52440;SDS011;39611;46.062;8.950;2023-03-01T02:11:40;4.57;;;2.20;;
52440;SDS011;39611;46.062;8.950;2023-03-01T02:14:07;3.58;;;2.03;;
52440;SDS011;39611;46.062;8.950;2023-03-01T02:16:34;5.25;;;1.88;;
52440;SDS011;39611;46.062;8.950;2023-03-01T02:19:01;3.22;;;1.85;;
52440;SDS011;39611;46.062;8.950;2023-03-01T02:24:24;6.10;;;2.67;;
52440;SDS011;39611;46.062;8.950;2023-03-01T02:27:01;6.88;;;2.38;;
52440;SDS011;39611;46.062;8.950;2023-03-01T02:29:27;3.47;;;1.63;;
52440;SDS011;39611;46.062;8.950;2023-03-01T02:31:54;4.95;;;2.22;;
52440;SDS011;39611;46.062;8.950;2023-03-01T02:34:24;3.30;;;1.70;;
52440;SDS011;39611;46.062;8.950;2023-03-01T02:36:53;3.90;;;2.00;;
52440;SDS011;39611;46.062;8.950;2023-03-01T02:39:26;7.03;;;2.13;;
52440;SDS011;39611;46.062;8.950;2023-03-01T02:41:56;6.00;;;2.17;;
52440;SDS011;39611;46.062;8.950;2023-03-01T02:44:24;5.55;;;2.67;;
52440;SDS011;39611;46.062;8.950;2023-03-01T02:46:53;2.90;;;1.65;;
52440;SDS011;39611;46.062;8.950;2023-03-01T02:49:29;4.60;;;1.58;;
52440;SDS011;39611;46.062;8.950;2023-03-01T02:57:27;4.63;;;2.00;;
52440;SDS011;39611;46.062;8.950;2023-03-01T02:59:56;8.48;;;2.13;;
52440;SDS011;39611;46.062;8.950;2023-03-01T03:02:26;4.85;;;1.70;;
52440;SDS011;39611;46.062;8.950;2023-03-01T03:07:35;5.07;;;1.73;;
52440;SDS011;39611;46.062;8.950;2023-03-01T03:10:04;4.30;;;2.13;;
52440;SDS011;39611;46.062;8.950;2023-03-01T03:12:33;5.18;;;2.17;;
52440;SDS011;39611;46.062;8.950;2023-03-01T03:14:59;3.92;;;1.88;;
52440;SDS011;39611;46.062;8.950;2023-03-01T03:17:26;3.30;;;1.73;;
52440;SDS011;39611;46.062;8.950;2023-03-01T03:19:52;3.42;;;1.67;;
52440;SDS011;39611;46.062;8.950;2023-03-01T03:22:19;3.20;;;1.85;;
52440;SDS011;39611;46.062;8.950;2023-03-01T03:24:45;4.82;;;2.00;;
52440;SDS011;39611;46.062;8.950;2023-03-01T03:27:12;4.55;;;1.92;;
52440;SDS011;39611;46.062;8.950;2023-03-01T03:29:38;3.97;;;1.85;;
52440;SDS011;39611;46.062;8.950;2023-03-01T03:32:04;3.92;;;1.60;;
52440;SDS011;39611;46.062;8.950;2023-03-01T03:34:31;3.13;;;2.17;;
52440;SDS011;39611;46.062;8.950;2023-03-01T03:36:57;5.57;;;1.75;;
52440;SDS011;39611;46.062;8.950;2023-03-01T03:39:26;4.47;;;1.17;;
52440;SDS011;39611;46.062;8.950;2023-03-01T03:41:53;3.17;;;1.70;;
52440;SDS011;39611;46.062;8.950;2023-03-01T03:44:21;3.05;;;1.65;;
52440;SDS011;39611;46.062;8.950;2023-03-01T03:46:47;2.22;;;1.13;;
52440;SDS011;39611;46.062;8.950;2023-03-01T03:49:14;2.55;;;1.42;;
52440;SDS011;39611;46.062;8.950;2023-03-01T03:51:40;2.78;;;1.90;;
52440;SDS011;39611;46.062;8.950;2023-03-01T03:54:06;2.83;;;1.17;;
52440;SDS011;39611;46.062;8.950;2023-03-01T03:56:33;3.53;;;1.25;;
52440;SDS011;39611;46.062;8.950;2023-03-01T03:58:59;4.28;;;1.38;;
52440;SDS011;39611;46.062;8.950;2023-03-01T04:01:26;3.15;;;1.45;;
52440;SDS011;39611;46.062;8.950;2023-03-01T04:03:52;2.30;;;1.70;;
52440;SDS011;39611;46.062;8.950;2023-03-01T04:06:20;2.13;;;0.93;;
52440;SDS011;39611;46.062;8.950;2023-03-01T04:08:47;3.95;;;1.90;;
52440;SDS011;39611;46.062;8.950;2023-03-01T04:11:17;3.45;;;1.67;;
52440;SDS011;39611;46.062;8.950;2023-03-01T04:13:53;3.85;;;1.83;;
52440;SDS011;39611;46.062;8.950;2023-03-01T04:16:21;2.83;;;0.90;;
52440;SDS011;39611;46.062;8.950;2023-03-01T04:18:48;4.00;;;1.48;;
52440;SDS011;39611;46.062;8.950;2023-03-01T04:21:14;5.55;;;2.25;;
52440;SDS011;39611;46.062;8.950;2023-03-01T04:23:41;3.17;;;1.30;;
52440;SDS011;39611;46.062;8.950;2023-03-01T04:26:07;4.78;;;1.90;;
52440;SDS011;39611;46.062;8.950;2023-03-01T04:28:39;3.33;;;1.50;;
52440;SDS011;39611;46.062;8.950;2023-03-01T04:31:10;4.07;;;2.05;;
52440;SDS011;39611;46.062;8.950;2023-03-01T04:36:13;4.55;;;1.50;;
52440;SDS011;39611;46.062;8.950;2023-03-01T04:38:41;3.83;;;1.67;;
52440;SDS011;39611;46.062;8.950;2023-03-01T04:41:09;2.58;;;1.00;;
52440;SDS011;39611;46.062;8.950;2023-03-01T04:43:37;3.85;;;1.88;;
52440;SDS011;39611;46.062;8.950;2023-03-01T04:46:05;5.00;;;1.10;;
52440;SDS011;39611;46.062;8.950;2023-03-01T04:48:40;4.90;;;2.40;;
52440;SDS011;39611;46.062;8.950;2023-03-01T04:51:07;4.90;;;1.60;;
52440;SDS011;39611;46.062;8.950;2023-03-01T04:53:35;4.97;;;1.80;;
52440;SDS011;39611;46.062;8.950;2023-03-01T04:56:04;3.03;;;1.50;;
52440;SDS011;39611;46.062;8.950;2023-03-01T04:58:31;6.32;;;2.35;;
52440;SDS011;39611;46.062;8.950;2023-03-01T05:00:57;4.32;;;2.03;;
52440;SDS011;39611;46.062;8.950;2023-03-01T05:03:24;4.18;;;1.70;;
52440;SDS011;39611;46.062;8.950;2023-03-01T05:05:51;4.75;;;2.17;;
52440;SDS011;39611;46.062;8.950;2023-03-01T05:08:18;4.65;;;2.42;;
52440;SDS011;39611;46.062;8.950;2023-03-01T05:10:50;2.47;;;1.45;;
52440;SDS011;39611;46.062;8.950;2023-03-01T05:13:19;4.22;;;2.08;;
52440;SDS011;39611;46.062;8.950;2023-03-01T05:15:47;3.67;;;1.50;;
52440;SDS011;39611;46.062;8.950;2023-03-01T05:18:21;2.97;;;1.90;;
52440;SDS011;39611;46.062;8.950;2023-03-01T05:20:52;4.47;;;1.92;;
52440;SDS011;39611;46.062;8.950;2023-03-01T05:23:22;3.90;;;1.98;;
52440;SDS011;39611;46.062;8.950;2023-03-01T05:25:49;5.90;;;1.90;;
52440;SDS011;39611;46.062;8.950;2023-03-01T05:28:18;3.60;;;1.08;;
52440;SDS011;39611;46.062;8.950;2023-03-01T05:30:46;3.65;;;1.98;;
52440;SDS011;39611;46.062;8.950;2023-03-01T05:33:13;3.05;;;1.17;;
52440;SDS011;39611;46.062;8.950;2023-03-01T05:35:40;4.85;;;2.45;;
52440;SDS011;39611;46.062;8.950;2023-03-01T05:38:11;4.93;;;2.25;;
52440;SDS011;39611;46.062;8.950;2023-03-01T05:40:42;8.10;;;2.33;;
52440;SDS011;39611;46.062;8.950;2023-03-01T05:43:10;4.13;;;2.33;;
52440;SDS011;39611;46.062;8.950;2023-03-01T05:45:39;3.72;;;1.52;;
52440;SDS011;39611;46.062;8.950;2023-03-01T05:48:07;6.80;;;2.03;;
52440;SDS011;39611;46.062;8.950;2023-03-01T05:50:35;6.80;;;2.50;;
52440;SDS011;39611;46.062;8.950;2023-03-01T05:53:11;3.35;;;2.22;;
52440;SDS011;39611;46.062;8.950;2023-03-01T05:58:12;3.63;;;1.70;;
52440;SDS011;39611;46.062;8.950;2023-03-01T06:00:41;3.17;;;1.38;;
52440;SDS011;39611;46.062;8.950;2023-03-01T06:03:09;1.92;;;1.23;;
52440;SDS011;39611;46.062;8.950;2023-03-01T06:05:36;2.75;;;1.60;;
52440;SDS011;39611;46.062;8.950;2023-03-01T06:08:03;2.67;;;1.55;;
52440;SDS011;39611;46.062;8.950;2023-03-01T06:10:29;3.45;;;1.88;;
52440;SDS011;39611;46.062;8.950;2023-03-01T06:12:56;6.22;;;1.98;;
52440;SDS011;39611;46.062;8.950;2023-03-01T06:15:23;2.65;;;1.73;;
52440;SDS011;39611;46.062;8.950;2023-03-01T06:17:50;4.95;;;1.80;;
52440;SDS011;39611;46.062;8.950;2023-03-01T06:20:21;3.00;;;1.27;;
52440;SDS011;39611;46.062;8.950;2023-03-01T06:22:48;2.65;;;1.77;;
52440;SDS011;39611;46.062;8.950;2023-03-01T06:25:16;3.40;;;1.65;;
52440;SDS011;39611;46.062;8.950;2023-03-01T06:27:45;4.90;;;2.08;;
52440;SDS011;39611;46.062;8.950;2023-03-01T06:30:13;2.92;;;1.35;;
52440;SDS011;39611;46.062;8.950;2023-03-01T06:32:40;4.35;;;1.67;;
52440;SDS011;39611;46.062;8.950;2023-03-01T06:35:10;3.50;;;1.88;;
52440;SDS011;39611;46.062;8.950;2023-03-01T06:37:39;6.18;;;2.30;;
52440;SDS011;39611;46.062;8.950;2023-03-01T06:40:06;1.85;;;1.10;;
52440;SDS011;39611;46.062;8.950;2023-03-01T06:42:38;2.95;;;1.15;;
52440;SDS011;39611;46.062;8.950;2023-03-01T06:45:05;4.60;;;2.03;;
52440;SDS011;39611;46.062;8.950;2023-03-01T06:47:33;3.85;;;2.20;;
52440;SDS011;39611;46.062;8.950;2023-03-01T06:50:00;8.25;;;2.38;;
52440;SDS011;39611;46.062;8.950;2023-03-01T06:52:28;4.50;;;1.92;;
52440;SDS011;39611;46.062;8.950;2023-03-01T06:54:55;5.13;;;2.50;;
52440;SDS011;39611;46.062;8.950;2023-03-01T06:57:22;2.85;;;1.92;;
52440;SDS011;39611;46.062;8.950;2023-03-01T06:59:48;7.35;;;2.25;;
52440;SDS011;39611;46.062;8.950;2023-03-01T07:02:14;8.38;;;3.75;;
52440;SDS011;39611;46.062;8.950;2023-03-01T07:04:41;4.50;;;2.72;;
52440;SDS011;39611;46.062;8.950;2023-03-01T07:07:08;7.22;;;3.03;;
52440;SDS011;39611;46.062;8.950;2023-03-01T07:09:34;6.38;;;3.13;;
52440;SDS011;39611;46.062;8.950;2023-03-01T07:12:01;6.95;;;2.67;;
52440;SDS011;39611;46.062;8.950;2023-03-01T07:14:27;8.00;;;3.10;;
52440;SDS011;39611;46.062;8.950;2023-03-01T07:16:54;9.20;;;4.15;;
52440;SDS011;39611;46.062;8.950;2023-03-01T07:19:21;8.00;;;3.88;;
52440;SDS011;39611;46.062;8.950;2023-03-01T07:21:48;6.20;;;3.38;;
52440;SDS011;39611;46.062;8.950;2023-03-01T07:24:14;4.70;;;3.13;;
52440;SDS011;39611;46.062;8.950;2023-03-01T07:26:41;5.90;;;3.55;;
52440;SDS011;39611;46.062;8.950;2023-03-01T07:29:07;7.10;;;3.03;;
52440;SDS011;39611;46.062;8.950;2023-03-01T07:31:36;7.78;;;3.35;;
52440;SDS011;39611;46.062;8.950;2023-03-01T07:34:03;8.95;;;3.50;;
52440;SDS011;39611;46.062;8.950;2023-03-01T07:36:29;5.07;;;2.25;;
52440;SDS011;39611;46.062;8.950;2023-03-01T07:38:57;8.00;;;2.15;;
52440;SDS011;39611;46.062;8.950;2023-03-01T07:41:23;4.15;;;1.63;;
52440;SDS011;39611;46.062;8.950;2023-03-01T07:43:50;3.60;;;2.03;;
52440;SDS011;39611;46.062;8.950;2023-03-01T07:46:17;4.05;;;1.70;;
52440;SDS011;39611;46.062;8.950;2023-03-01T07:48:45;5.10;;;2.88;;
52440;SDS011;39611;46.062;8.950;2023-03-01T07:51:11;6.07;;;2.83;;
52440;SDS011;39611;46.062;8.950;2023-03-01T07:53:37;6.00;;;2.30;;
52440;SDS011;39611;46.062;8.950;2023-03-01T07:56:06;7.05;;;3.28;;
52440;SDS011;39611;46.062;8.950;2023-03-01T07:58:34;6.32;;;2.28;;
52440;SDS011;39611;46.062;8.950;2023-03-01T08:01:05;6.28;;;2.40;;
52440;SDS011;39611;46.062;8.950;2023-03-01T08:03:33;12.82;;;5.40;;
52440;SDS011;39611;46.062;8.950;2023-03-01T08:06:01;12.45;;;6.68;;
52440;SDS011;39611;46.062;8.950;2023-03-01T08:08:30;12.82;;;6.10;;
52440;SDS011;39611;46.062;8.950;2023-03-01T08:10:57;13.43;;;5.93;;
52440;SDS011;39611;46.062;8.950;2023-03-01T08:13:27;7.07;;;3.42;;
52440;SDS011;39611;46.062;8.950;2023-03-01T08:15:54;5.63;;;2.78;;
52440;SDS011;39611;46.062;8.950;2023-03-01T08:18:26;5.38;;;2.92;;
52440;SDS011;39611;46.062;8.950;2023-03-01T08:20:53;5.22;;;2.22;;
52440;SDS011;39611;46.062;8.950;2023-03-01T08:23:19;3.38;;;2.03;;
52440;SDS011;39611;46.062;8.950;2023-03-01T08:25:46;12.23;;;4.00;;
52440;SDS011;39611;46.062;8.950;2023-03-01T08:28:12;5.60;;;3.03;;
52440;SDS011;39611;46.062;8.950;2023-03-01T08:30:39;3.67;;;1.55;;
52440;SDS011;39611;46.062;8.950;2023-03-01T08:33:05;7.15;;;1.85;;
52440;SDS011;39611;46.062;8.950;2023-03-01T08:35:32;4.35;;;1.95;;
52440;SDS011;39611;46.062;8.950;2023-03-01T08:37:58;3.90;;;1.90;;
52440;SDS011;39611;46.062;8.950;2023-03-01T08:40:24;6.97;;;1.33;;
52440;SDS011;39611;46.062;8.950;2023-03-01T08:42:51;5.00;;;2.35;;
52440;SDS011;39611;46.062;8.950;2023-03-01T08:45:17;3.92;;;1.70;;
52440;SDS011;39611;46.062;8.950;2023-03-01T08:47:44;5.55;;;1.88;;
52440;SDS011;39611;46.062;8.950;2023-03-01T08:50:11;5.38;;;2.53;;
52440;SDS011;39611;46.062;8.950;2023-03-01T08:52:37;2.72;;;1.52;;
52440;SDS011;39611;46.062;8.950;2023-03-01T08:55:04;3.80;;;1.83;;
52440;SDS011;39611;46.062;8.950;2023-03-01T08:57:31;5.90;;;2.53;;
52440;SDS011;39611;46.062;8.950;2023-03-01T08:59:57;6.05;;;3.10;;
52440;SDS011;39611;46.062;8.950;2023-03-01T09:02:24;5.22;;;2.92;;
52440;SDS011;39611;46.062;8.950;2023-03-01T09:04:50;6.68;;;2.58;;
52440;SDS011;39611;46.062;8.950;2023-03-01T09:07:17;6.20;;;2.08;;
52440;SDS011;39611;46.062;8.950;2023-03-01T09:09:43;5.28;;;1.55;;
52440;SDS011;39611;46.062;8.950;2023-03-01T09:12:09;3.90;;;1.73;;
52440;SDS011;39611;46.062;8.950;2023-03-01T09:14:36;5.55;;;2.53;;
52440;SDS011;39611;46.062;8.950;2023-03-01T09:17:04;4.53;;;1.65;;
52440;SDS011;39611;46.062;8.950;2023-03-01T09:19:31;3.78;;;1.45;;
52440;SDS011;39611;46.062;8.950;2023-03-01T09:21:57;4.22;;;1.67;;
52440;SDS011;39611;46.062;8.950;2023-03-01T09:24:24;6.15;;;2.60;;
52440;SDS011;39611;46.062;8.950;2023-03-01T09:26:54;4.80;;;1.83;;
52440;SDS011;39611;46.062;8.950;2023-03-01T09:29:23;5.38;;;2.50;;
52440;SDS011;39611;46.062;8.950;2023-03-01T09:31:49;8.55;;;3.60;;
52440;SDS011;39611;46.062;8.950;2023-03-01T09:34:16;7.55;;;3.58;;
52440;SDS011;39611;46.062;8.950;2023-03-01T09:36:47;11.35;;;4.03;;
52440;SDS011;39611;46.062;8.950;2023-03-01T09:39:14;11.38;;;4.28;;
52440;SDS011;39611;46.062;8.950;2023-03-01T09:47:00;11.52;;;3.42;;
52440;SDS011;39611;46.062;8.950;2023-03-01T09:49:29;10.73;;;3.70;;
52440;SDS011;39611;46.062;8.950;2023-03-01T09:52:46;8.02;;;3.22;;
52440;SDS011;39611;46.062;8.950;2023-03-01T09:54:55;7.43;;;3.22;;
52440;SDS011;39611;46.062;8.950;2023-03-01T10:00:33;5.78;;;3.00;;
52440;SDS011;39611;46.062;8.950;2023-03-01T10:06:03;8.90;;;4.03;;
52440;SDS011;39611;46.062;8.950;2023-03-01T10:11:22;6.15;;;2.70;;
52440;SDS011;39611;46.062;8.950;2023-03-01T10:16:43;6.55;;;4.05;;
52440;SDS011;39611;46.062;8.950;2023-03-01T10:22:50;9.98;;;3.58;;
52440;SDS011;39611;46.062;8.950;2023-03-01T10:24:59;12.90;;;5.07;;
52440;SDS011;39611;46.062;8.950;2023-03-01T10:27:36;6.65;;;3.67;;
52440;SDS011;39611;46.062;8.950;2023-03-01T10:30:22;8.80;;;3.85;;
52440;SDS011;39611;46.062;8.950;2023-03-01T10:33:00;9.45;;;3.75;;
52440;SDS011;39611;46.062;8.950;2023-03-01T10:35:29;6.35;;;3.28;;
52440;SDS011;39611;46.062;8.950;2023-03-01T10:38:05;6.47;;;3.08;;
52440;SDS011;39611;46.062;8.950;2023-03-01T10:40:35;5.82;;;3.67;;
52440;SDS011;39611;46.062;8.950;2023-03-01T10:43:03;8.95;;;3.75;;
52440;SDS011;39611;46.062;8.950;2023-03-01T10:50:32;10.02;;;3.80;;
52440;SDS011;39611;46.062;8.950;2023-03-01T10:53:03;9.57;;;3.90;;
52440;SDS011;39611;46.062;8.950;2023-03-01T10:55:34;10.02;;;4.32;;
52440;SDS011;39611;46.062;8.950;2023-03-01T11:00:48;7.63;;;4.13;;
52440;SDS011;39611;46.062;8.950;2023-03-01T11:03:24;9.07;;;4.23;;
52440;SDS011;39611;46.062;8.950;2023-03-01T11:06:26;12.82;;;4.55;;
52440;SDS011;39611;46.062;8.950;2023-03-01T11:08:49;10.02;;;4.68;;
52440;SDS011;39611;46.062;8.950;2023-03-01T11:11:23;9.65;;;3.58;;
52440;SDS011;39611;46.062;8.950;2023-03-01T11:14:03;6.20;;;3.33;;
52440;SDS011;39611;46.062;8.950;2023-03-01T11:17:03;11.40;;;4.05;;
52440;SDS011;39611;46.062;8.950;2023-03-01T11:19:32;7.25;;;3.72;;
52440;SDS011;39611;46.062;8.950;2023-03-01T11:24:34;8.80;;;3.67;;
52440;SDS011;39611;46.062;8.950;2023-03-01T11:27:13;8.60;;;3.58;;
52440;SDS011;39611;46.062;8.950;2023-03-01T11:29:44;9.80;;;3.00;;
52440;SDS011;39611;46.062;8.950;2023-03-01T11:32:17;4.65;;;3.05;;
52440;SDS011;39611;46.062;8.950;2023-03-01T11:34:49;6.88;;;2.67;;
52440;SDS011;39611;46.062;8.950;2023-03-01T11:37:26;8.50;;;3.10;;
52440;SDS011;39611;46.062;8.950;2023-03-01T11:40:12;8.32;;;2.90;;
52440;SDS011;39611;46.062;8.950;2023-03-01T11:45:12;7.78;;;2.78;;
52440;SDS011;39611;46.062;8.950;2023-03-01T11:50:28;8.20;;;3.28;;
52440;SDS011;39611;46.062;8.950;2023-03-01T11:52:59;9.40;;;3.65;;
52440;SDS011;39611;46.062;8.950;2023-03-01T12:02:07;7.50;;;2.93;;
52440;SDS011;39611;46.062;8.950;2023-03-01T12:05:12;8.98;;;3.58;;
52440;SDS011;39611;46.062;8.950;2023-03-01T12:08:07;8.60;;;3.20;;
52440;SDS011;39611;46.062;8.950;2023-03-01T12:21:54;16.70;;;4.63;;
52440;SDS011;39611;46.062;8.950;2023-03-01T12:24:30;19.50;;;6.25;;
52440;SDS011;39611;46.062;8.950;2023-03-01T12:28:01;13.07;;;5.15;;
52440;SDS011;39611;46.062;8.950;2023-03-01T12:30:18;9.18;;;3.35;;
52440;SDS011;39611;46.062;8.950;2023-03-01T12:33:12;7.03;;;3.13;;
52440;SDS011;39611;46.062;8.950;2023-03-01T12:44:12;8.05;;;2.92;;
52440;SDS011;39611;46.062;8.950;2023-03-01T12:49:42;7.00;;;3.75;;
52440;SDS011;39611;46.062;8.950;2023-03-01T12:54:43;7.95;;;3.17;;
52440;SDS011;39611;46.062;8.950;2023-03-01T13:03:06;7.63;;;3.58;;
52440;SDS011;39611;46.062;8.950;2023-03-01T13:06:06;10.07;;;4.13;;
52440;SDS011;39611;46.062;8.950;2023-03-01T13:08:40;11.68;;;3.72;;
52440;SDS011;39611;46.062;8.950;2023-03-01T13:11:16;10.98;;;3.80;;
52440;SDS011;39611;46.062;8.950;2023-03-01T13:16:38;14.80;;;3.45;;
52440;SDS011;39611;46.062;8.950;2023-03-01T13:19:10;9.07;;;3.92;;
52440;SDS011;39611;46.062;8.950;2023-03-01T13:24:28;8.25;;;3.15;;
52440;SDS011;39611;46.062;8.950;2023-03-01T13:32:24;12.50;;;4.60;;
52440;SDS011;39611;46.062;8.950;2023-03-01T13:37:44;8.60;;;3.83;;
52440;SDS011;39611;46.062;8.950;2023-03-01T13:42:47;9.38;;;3.65;;
52440;SDS011;39611;46.062;8.950;2023-03-01T13:45:38;9.50;;;3.45;;
52440;SDS011;39611;46.062;8.950;2023-03-01T13:48:17;11.50;;;4.05;;
52440;SDS011;39611;46.062;8.950;2023-03-01T13:50:58;7.78;;;2.67;;
52440;SDS011;39611;46.062;8.950;2023-03-01T13:53:32;8.02;;;3.33;;
52440;SDS011;39611;46.062;8.950;2023-03-01T13:58:33;6.50;;;3.03;;
52440;SDS011;39611;46.062;8.950;2023-03-01T14:01:51;11.27;;;4.57;;
52440;SDS011;39611;46.062;8.950;2023-03-01T14:04:28;10.05;;;3.60;;
52440;SDS011;39611;46.062;8.950;2023-03-01T14:09:43;7.18;;;3.00;;
52440;SDS011;39611;46.062;8.950;2023-03-01T14:14:55;9.45;;;2.83;;
52440;SDS011;39611;46.062;8.950;2023-03-01T14:17:37;11.50;;;3.78;;
52440;SDS011;39611;46.062;8.950;2023-03-01T14:20:21;10.27;;;3.53;;
52440;SDS011;39611;46.062;8.950;2023-03-01T14:22:51;13.25;;;4.85;;
52440;SDS011;39611;46.062;8.950;2023-03-01T14:25:21;9.52;;;4.57;;
52440;SDS011;39611;46.062;8.950;2023-03-01T14:28:01;13.13;;;4.10;;
52440;SDS011;39611;46.062;8.950;2023-03-01T14:31:00;13.27;;;4.75;;
52440;SDS011;39611;46.062;8.950;2023-03-01T14:33:28;12.45;;;4.47;;
52440;SDS011;39611;46.062;8.950;2023-03-01T14:36:00;8.70;;;3.90;;
52440;SDS011;39611;46.062;8.950;2023-03-01T14:38:39;11.60;;;4.60;;
52440;SDS011;39611;46.062;8.950;2023-03-01T14:41:25;13.70;;;5.25;;
52440;SDS011;39611;46.062;8.950;2023-03-01T14:43:55;13.00;;;4.10;;
52440;SDS011;39611;46.062;8.950;2023-03-01T14:46:36;15.02;;;4.95;;
52440;SDS011;39611;46.062;8.950;2023-03-01T14:49:14;15.02;;;5.32;;
52440;SDS011;39611;46.062;8.950;2023-03-01T14:52:06;14.55;;;5.80;;
52440;SDS011;39611;46.062;8.950;2023-03-01T14:54:49;12.90;;;4.72;;
52440;SDS011;39611;46.062;8.950;2023-03-01T14:57:19;12.10;;;5.47;;
52440;SDS011;39611;46.062;8.950;2023-03-01T14:59:52;10.25;;;4.45;;
52440;SDS011;39611;46.062;8.950;2023-03-01T15:02:22;9.88;;;4.20;;
52440;SDS011;39611;46.062;8.950;2023-03-01T15:04:52;10.55;;;4.50;;
52440;SDS011;39611;46.062;8.950;2023-03-01T15:07:24;12.25;;;4.68;;
52440;SDS011;39611;46.062;8.950;2023-03-01T15:09:55;13.00;;;5.30;;
52440;SDS011;39611;46.062;8.950;2023-03-01T15:14:51;13.35;;;4.20;;
52440;SDS011;39611;46.062;8.950;2023-03-01T15:20:01;13.88;;;5.32;;
52440;SDS011;39611;46.062;8.950;2023-03-01T15:22:31;9.88;;;4.75;;
52440;SDS011;39611;46.062;8.950;2023-03-01T15:24:58;9.18;;;4.13;;
52440;SDS011;39611;46.062;8.950;2023-03-01T15:27:25;9.35;;;4.13;;
52440;SDS011;39611;46.062;8.950;2023-03-01T15:29:54;14.05;;;5.78;;
52440;SDS011;39611;46.062;8.950;2023-03-01T15:32:30;12.95;;;5.63;;
52440;SDS011;39611;46.062;8.950;2023-03-01T15:35:09;10.48;;;4.15;;
52440;SDS011;39611;46.062;8.950;2023-03-01T15:38:23;10.05;;;4.10;;
52440;SDS011;39611;46.062;8.950;2023-03-01T15:40:53;12.93;;;3.92;;
52440;SDS011;39611;46.062;8.950;2023-03-01T15:43:37;12.68;;;3.70;;
52440;SDS011;39611;46.062;8.950;2023-03-01T15:46:26;11.57;;;4.95;;
52440;SDS011;39611;46.062;8.950;2023-03-01T15:48:54;9.98;;;4.20;;
52440;SDS011;39611;46.062;8.950;2023-03-01T15:51:30;10.80;;;4.88;;
52440;SDS011;39611;46.062;8.950;2023-03-01T15:54:10;14.60;;;6.05;;
52440;SDS011;39611;46.062;8.950;2023-03-01T15:56:51;17.92;;;4.85;;
52440;SDS011;39611;46.062;8.950;2023-03-01T15:59:17;10.82;;;4.40;;
52440;SDS011;39611;46.062;8.950;2023-03-01T16:01:44;12.27;;;4.38;;
52440;SDS011;39611;46.062;8.950;2023-03-01T16:04:12;10.02;;;4.60;;
52440;SDS011;39611;46.062;8.950;2023-03-01T16:06:46;10.73;;;4.47;;
52440;SDS011;39611;46.062;8.950;2023-03-01T16:09:23;11.20;;;5.10;;
52440;SDS011;39611;46.062;8.950;2023-03-01T16:11:52;12.10;;;4.53;;
52440;SDS011;39611;46.062;8.950;2023-03-01T16:14:19;8.02;;;4.03;;
52440;SDS011;39611;46.062;8.950;2023-03-01T16:16:46;16.13;;;5.07;;
52440;SDS011;39611;46.062;8.950;2023-03-01T16:19:14;11.55;;;3.90;;
52440;SDS011;39611;46.062;8.950;2023-03-01T16:21:41;13.30;;;4.88;;
52440;SDS011;39611;46.062;8.950;2023-03-01T16:24:09;10.23;;;3.85;;
52440;SDS011;39611;46.062;8.950;2023-03-01T16:26:36;10.70;;;4.50;;
52440;SDS011;39611;46.062;8.950;2023-03-01T16:29:03;10.48;;;4.97;;
52440;SDS011;39611;46.062;8.950;2023-03-01T16:31:31;113.93;;;42.63;;
52440;SDS011;39611;46.062;8.950;2023-03-01T16:33:58;285.65;;;88.75;;
52440;SDS011;39611;46.062;8.950;2023-03-01T16:36:26;383.05;;;148.18;;
52440;SDS011;39611;46.062;8.950;2023-03-01T16:38:54;67.25;;;25.15;;
52440;SDS011;39611;46.062;8.950;2023-03-01T16:41:24;90.85;;;35.63;;
52440;SDS011;39611;46.062;8.950;2023-03-01T16:43:50;29.58;;;11.00;;
52440;SDS011;39611;46.062;8.950;2023-03-01T16:46:21;14.38;;;6.07;;
52440;SDS011;39611;46.062;8.950;2023-03-01T16:48:50;49.53;;;18.10;;
52440;SDS011;39611;46.062;8.950;2023-03-01T16:51:17;39.08;;;15.40;;
52440;SDS011;39611;46.062;8.950;2023-03-01T16:53:44;77.70;;;25.00;;
52440;SDS011;39611;46.062;8.950;2023-03-01T16:56:13;29.17;;;10.50;;
52440;SDS011;39611;46.062;8.950;2023-03-01T16:58:40;19.25;;;6.45;;
52440;SDS011;39611;46.062;8.950;2023-03-01T17:01:09;18.38;;;6.93;;